Terminal Aerodrome Forecast
Issued by NWS Bismarck, ND

Home | Current Version | Previous Version | Graphics & Text | Print | Product List | Glossary On
Versions: 1 2 3 4 5 6 7 8 9 10 11 12 13
548
FTUS43 KBIS 172336
TAFBIS
TAF
KBIS 172336Z 1800/1824 17009KT P6SM FEW080 FEW250
     FM180200 14005KT P6SM FEW090 SCT200
     FM180500 08004KT P6SM FEW090 SCT200
     FM180700 35004KT P6SM FEW090
     FM181600 33008KT P6SM SKC=

USA.gov is the U.S. government's official web portal to all federal, state and local government web resources and services.